Silver Lake, New Jersey
Current Conditions -  °F | °C
As of 12:53 PM on Thursday 23 Oct 2014 (Local Time) from KFWN Reporting Station
Light Rain Light Rain  
Wind Chill: 55°   Ceiling: 3800
Heat Index: 55°   Visibility: 10mi
Dew Point: 46°   Wind: 9mph
Humidity: 72%   Direction: 360°N
Pressure: 29.75"   Gusts: NA
Location:  41.1122°N, 74.4998°W
Report Text: KFWN 231653Z AUTO 36008KT 10SM -RA SCT029 OVC038 13/08 A2975 RMK AO2 SLP073 P0001 T01280078
Loading
Personal Weather Stations






























Interactive Weather Map New forecast layout! Learn more

10-Day Weather Forecast

Advertisements
Track Severe Weather on mobile